createdAt,value
2022-07-30T00:02:11.495Z,22.34
2022-07-30T00:04:39.353Z,22.31
2022-07-30T00:07:07.334Z,22.28
2022-07-30T00:09:36.283Z,22.25
2022-07-30T00:12:04.837Z,22.21
2022-07-30T00:14:34.890Z,22.20
2022-07-30T00:17:03.323Z,22.16
2022-07-30T00:19:33.133Z,22.11
2022-07-30T00:22:01.016Z,22.07
2022-07-30T00:24:28.968Z,22.03
2022-07-30T00:26:56.867Z,21.94
2022-07-30T00:29:25.636Z,21.90
2022-07-30T00:31:53.524Z,21.82
2022-07-30T00:34:21.328Z,21.75
2022-07-30T00:36:50.590Z,21.67
2022-07-30T00:39:18.432Z,21.58
2022-07-30T00:42:00.557Z,21.49
2022-07-30T00:44:29.398Z,21.40
2022-07-30T00:46:58.208Z,21.35
2022-07-30T00:49:27.085Z,21.30
2022-07-30T00:51:56.418Z,21.26
2022-07-30T00:54:24.238Z,21.22
2022-07-30T00:56:52.243Z,21.19
2022-07-30T00:59:20.178Z,21.17
2022-07-30T01:01:48.153Z,21.13
2022-07-30T01:04:16.018Z,21.07
2022-07-30T01:06:43.845Z,21.00
2022-07-30T01:09:13.273Z,20.93
2022-07-30T01:11:42.673Z,20.86
2022-07-30T01:14:10.985Z,20.73
2022-07-30T01:16:41.416Z,20.65
2022-07-30T01:19:32.382Z,20.61
2022-07-30T01:22:09.361Z,20.58
2022-07-30T01:24:43.977Z,20.57
2022-07-30T01:27:19.644Z,20.55
2022-07-30T01:29:49.223Z,20.50
2022-07-30T01:32:18.862Z,20.45
2022-07-30T01:34:48.011Z,20.37
2022-07-30T01:37:17.916Z,20.29
2022-07-30T01:39:49.608Z,20.17
2022-07-30T01:42:20.393Z,20.12
2022-07-30T01:44:50.076Z,20.09
2022-07-30T01:47:20.402Z,20.02
2022-07-30T01:49:50.463Z,19.93
2022-07-30T01:52:19.195Z,19.86
2022-07-30T01:54:49.666Z,19.79
2022-07-30T01:57:20.801Z,19.76
2022-07-30T01:59:51.269Z,19.70
2022-07-30T02:02:20.656Z,19.65
2022-07-30T02:04:48.709Z,19.58
2022-07-30T02:07:21.072Z,19.51
2022-07-30T02:09:54.830Z,19.44
2022-07-30T02:12:29.099Z,19.35
2022-07-30T02:15:05.071Z,19.29
2022-07-30T02:17:45.065Z,19.21
2022-07-30T02:20:15.792Z,19.10
2022-07-30T02:22:48.167Z,19.01
2022-07-30T02:25:19.785Z,18.97
2022-07-30T02:27:53.542Z,18.94
2022-07-30T02:30:24.514Z,18.88
2022-07-30T02:32:52.681Z,18.87
2022-07-30T02:35:25.093Z,18.86
2022-07-30T02:37:55.678Z,18.86
2022-07-30T02:40:25.093Z,18.85
2022-07-30T02:42:55.066Z,18.83
2022-07-30T02:45:26.596Z,18.82
2022-07-30T02:47:58.523Z,18.83
2022-07-30T02:50:28.395Z,18.79
2022-07-30T02:52:58.912Z,18.72
2022-07-30T02:55:28.786Z,18.63
2022-07-30T02:57:59.962Z,18.59
2022-07-30T03:00:30.587Z,18.58
2022-07-30T03:03:00.290Z,18.56
2022-07-30T03:05:30.456Z,18.55
2022-07-30T03:08:01.571Z,18.57
2022-07-30T03:10:30.161Z,18.54
2022-07-30T03:13:00.733Z,18.52
2022-07-30T03:15:31.025Z,18.50
2022-07-30T03:18:01.046Z,18.50
2022-07-30T03:20:33.112Z,18.50
2022-07-30T03:23:04.107Z,18.50
2022-07-30T03:25:33.797Z,18.48
2022-07-30T03:28:04.892Z,18.46
2022-07-30T03:30:35.740Z,18.45
2022-07-30T03:33:04.565Z,18.43
2022-07-30T03:35:33.425Z,18.42
2022-07-30T03:38:02.376Z,18.42
2022-07-30T03:40:31.558Z,18.37
2022-07-30T03:43:00.362Z,18.34
2022-07-30T03:45:30.120Z,18.32
2022-07-30T03:48:08.777Z,18.29
2022-07-30T03:50:39.340Z,18.24
2022-07-30T03:53:08.714Z,18.21
2022-07-30T03:55:51.837Z,18.16
2022-07-30T03:58:53.498Z,18.12
2022-07-30T04:01:25.912Z,18.08
2022-07-30T04:04:05.525Z,18.08
2022-07-30T04:06:33.622Z,18.06
2022-07-30T04:09:02.977Z,18.04
2022-07-30T04:11:41.481Z,18.02
2022-07-30T04:14:16.058Z,18.01
2022-07-30T04:16:52.850Z,18.00
2022-07-30T04:19:29.454Z,17.97
2022-07-30T04:21:59.621Z,17.93
2022-07-30T04:24:29.387Z,17.90
2022-07-30T04:27:00.568Z,17.87
2022-07-30T04:29:28.947Z,17.88
2022-07-30T04:31:58.719Z,17.87
2022-07-30T04:34:48.929Z,17.89
2022-07-30T04:37:22.833Z,17.91
2022-07-30T04:39:54.161Z,17.92
2022-07-30T04:42:22.732Z,17.91
2022-07-30T04:45:01.101Z,17.91
2022-07-30T04:47:35.778Z,17.93
2022-07-30T04:50:35.624Z,17.93
2022-07-30T04:53:06.793Z,17.94
2022-07-30T04:55:41.701Z,17.98
2022-07-30T04:58:11.519Z,18.01
2022-07-30T05:00:41.528Z,18.03
2022-07-30T05:03:16.238Z,18.04
2022-07-30T05:05:56.753Z,18.02
2022-07-30T05:08:26.724Z,18.03
2022-07-30T05:10:55.246Z,18.03
2022-07-30T05:13:23.423Z,18.02
2022-07-30T05:16:02.290Z,18.02
2022-07-30T05:18:31.649Z,18.02
2022-07-30T05:20:59.667Z,18.01
2022-07-30T05:23:31.677Z,17.98
2022-07-30T05:26:14.658Z,17.99
2022-07-30T05:28:52.051Z,18.01
2022-07-30T05:31:26.129Z,17.99
2022-07-30T05:34:03.804Z,17.97
2022-07-30T05:36:41.188Z,17.94
2022-07-30T05:39:09.459Z,17.92
2022-07-30T05:41:57.543Z,17.91
2022-07-30T05:44:41.899Z,17.91
2022-07-30T05:47:09.750Z,17.91
2022-07-30T05:49:40.730Z,17.92
2022-07-30T05:52:13.937Z,17.94
2022-07-30T05:54:42.254Z,17.97
2022-07-30T05:57:37.022Z,17.97
2022-07-30T06:00:07.624Z,17.97
2022-07-30T06:02:53.583Z,17.96
2022-07-30T06:05:28.916Z,17.96
2022-07-30T06:08:00.696Z,18.01
2022-07-30T06:10:31.137Z,18.03
2022-07-30T06:12:59.888Z,18.03
2022-07-30T06:15:28.484Z,18.05
2022-07-30T06:17:59.550Z,18.06
2022-07-30T06:20:54.128Z,18.09
2022-07-30T06:23:48.165Z,18.11
2022-07-30T06:26:30.028Z,18.10
2022-07-30T06:28:57.902Z,18.09
2022-07-30T06:31:31.323Z,18.07
2022-07-30T06:33:59.368Z,18.06
2022-07-30T06:36:32.439Z,18.04
2022-07-30T06:39:07.486Z,18.03
2022-07-30T06:42:10.642Z,18.04
2022-07-30T06:45:02.528Z,18.04
2022-07-30T06:47:48.199Z,18.06
2022-07-30T06:50:16.032Z,18.06
2022-07-30T06:52:45.297Z,18.04
2022-07-30T06:55:13.289Z,18.06
2022-07-30T06:57:48.770Z,18.10
2022-07-30T07:00:39.330Z,18.11
2022-07-30T07:03:12.386Z,18.12
2022-07-30T07:05:41.276Z,18.13
2022-07-30T07:08:10.445Z,18.13
2022-07-30T07:10:44.125Z,18.12
2022-07-30T07:13:31.548Z,18.11
2022-07-30T07:16:00.447Z,18.09
2022-07-30T07:18:30.563Z,18.08
2022-07-30T07:21:06.305Z,18.05
2022-07-30T07:23:42.115Z,18.02
2022-07-30T07:26:30.771Z,17.99
2022-07-30T07:29:03.377Z,17.96
2022-07-30T07:32:02.833Z,17.95
2022-07-30T07:34:21.751Z,17.93
2022-07-30T07:36:49.698Z,17.91
2022-07-30T07:39:19.242Z,17.91
2022-07-30T07:41:48.783Z,17.91
2022-07-30T07:44:21.313Z,17.92
2022-07-30T07:46:49.332Z,17.90
2022-07-30T07:49:17.663Z,17.90
2022-07-30T07:51:49.346Z,17.87
2022-07-30T07:54:23.410Z,17.86
2022-07-30T07:56:56.674Z,17.84
2022-07-30T07:59:40.041Z,17.84
2022-07-30T08:02:12.840Z,17.84
2022-07-30T08:04:52.895Z,17.87
2022-07-30T08:07:36.953Z,17.88
2022-07-30T08:10:32.523Z,17.90
2022-07-30T08:13:04.049Z,17.92
2022-07-30T08:15:50.252Z,17.98
2022-07-30T08:18:41.277Z,18.03
2022-07-30T08:21:32.300Z,18.09
2022-07-30T08:24:00.172Z,18.12
2022-07-30T08:26:29.353Z,18.19
2022-07-30T08:28:57.180Z,18.23
2022-07-30T08:31:25.286Z,18.28
2022-07-30T08:33:53.457Z,18.30
2022-07-30T08:36:24.164Z,18.31
2022-07-30T08:38:54.404Z,18.36
2022-07-30T08:41:23.587Z,18.39
2022-07-30T08:43:54.615Z,18.39
2022-07-30T08:46:26.171Z,18.39
2022-07-30T08:49:09.149Z,18.42
2022-07-30T08:51:40.118Z,18.44
2022-07-30T08:54:23.558Z,18.47
2022-07-30T08:56:51.539Z,18.48
2022-07-30T08:59:24.357Z,18.51
2022-07-30T09:02:13.089Z,18.52
2022-07-30T09:04:55.631Z,18.56
2022-07-30T09:07:23.608Z,18.59
2022-07-30T09:09:51.642Z,18.63
2022-07-30T09:12:36.798Z,18.68
2022-07-30T09:15:12.103Z,18.71
2022-07-30T09:17:52.712Z,18.74
2022-07-30T09:20:23.742Z,18.75
2022-07-30T09:22:53.987Z,18.77
2022-07-30T09:25:37.633Z,18.78
2022-07-30T09:28:32.258Z,18.79
2022-07-30T09:31:17.417Z,18.82
2022-07-30T09:34:25.594Z,18.88
2022-07-30T09:37:20.422Z,18.93
2022-07-30T09:40:13.345Z,19.02
2022-07-30T09:43:06.697Z,19.08
2022-07-30T09:45:35.165Z,19.12
2022-07-30T09:48:21.848Z,19.17
2022-07-30T09:50:51.001Z,19.21
2022-07-30T09:53:19.718Z,19.26
2022-07-30T09:55:50.400Z,19.28
2022-07-30T09:58:27.047Z,19.28
2022-07-30T10:00:59.283Z,19.29
2022-07-30T10:03:48.620Z,19.31
2022-07-30T10:06:37.871Z,19.28
2022-07-30T10:09:29.711Z,19.30
2022-07-30T10:11:59.954Z,19.31
2022-07-30T10:14:33.973Z,19.32
2022-07-30T10:17:10.639Z,19.38
2022-07-30T10:19:42.903Z,19.42
2022-07-30T10:22:35.841Z,19.45
2022-07-30T10:25:30.376Z,19.51
2022-07-30T10:28:18.723Z,19.58
2022-07-30T10:30:50.401Z,19.66
2022-07-30T10:33:35.036Z,19.72
2022-07-30T10:36:08.988Z,19.73
2022-07-30T10:38:41.447Z,19.77
2022-07-30T10:41:22.090Z,19.79
2022-07-30T10:44:29.055Z,19.84
2022-07-30T10:47:07.102Z,19.86
2022-07-30T10:49:41.225Z,19.89
2022-07-30T10:52:12.467Z,19.92
2022-07-30T10:54:47.212Z,19.97
2022-07-30T10:57:32.367Z,20.02
2022-07-30T11:00:15.309Z,20.08
2022-07-30T11:03:22.196Z,20.11
2022-07-30T11:05:51.657Z,20.11
2022-07-30T11:08:42.962Z,20.15
2022-07-30T11:12:01.677Z,20.16
2022-07-30T11:15:06.788Z,20.16
2022-07-30T11:18:04.397Z,20.14
2022-07-30T11:20:34.272Z,20.12
2022-07-30T11:23:40.675Z,20.14
2022-07-30T11:26:14.166Z,20.13
2022-07-30T11:28:44.891Z,20.16
2022-07-30T11:31:57.024Z,20.23
2022-07-30T11:34:30.724Z,20.32
2022-07-30T11:37:19.247Z,20.36
2022-07-30T11:40:12.259Z,20.40
2022-07-30T11:42:42.806Z,20.43
2022-07-30T11:45:27.102Z,20.45
2022-07-30T11:47:57.634Z,20.49
2022-07-30T11:50:27.193Z,20.55
2022-07-30T11:52:57.457Z,20.59
2022-07-30T11:55:28.994Z,20.62
2022-07-30T11:57:58.089Z,20.66
2022-07-30T12:00:26.499Z,20.71
2022-07-30T12:02:54.636Z,20.74
2022-07-30T12:05:26.935Z,20.84
2022-07-30T12:07:58.832Z,20.89
2022-07-30T12:10:28.080Z,20.97
2022-07-30T12:13:09.005Z,21.06
2022-07-30T12:15:39.417Z,21.17
2022-07-30T12:20:59.315Z,21.35
2022-07-30T12:23:28.226Z,21.42
2022-07-30T12:25:58.188Z,21.51
2022-07-30T12:28:27.955Z,21.55
2022-07-30T12:30:57.449Z,21.59
2022-07-30T12:33:26.002Z,21.67
2022-07-30T12:35:55.615Z,21.74
2022-07-30T12:38:25.837Z,21.84
2022-07-30T12:41:01.173Z,21.93
2022-07-30T12:43:48.564Z,22.06
2022-07-30T12:46:19.007Z,22.17
2022-07-30T12:48:51.497Z,22.25
2022-07-30T12:51:20.112Z,22.33
2022-07-30T12:53:48.881Z,22.41
2022-07-30T12:56:18.959Z,22.49
2022-07-30T12:58:47.228Z,22.56
2022-07-30T13:01:17.188Z,22.58
2022-07-30T13:03:45.666Z,22.65
2022-07-30T13:06:19.507Z,22.74
2022-07-30T13:08:50.167Z,22.86
2022-07-30T13:11:20.584Z,22.96
2022-07-30T13:13:50.177Z,23.06
2022-07-30T13:16:19.092Z,23.14
2022-07-30T13:18:47.469Z,23.24
2022-07-30T13:21:15.588Z,23.34
2022-07-30T13:23:43.454Z,23.39
2022-07-30T13:26:12.514Z,23.46
2022-07-30T13:28:42.741Z,23.56
2022-07-30T13:31:10.646Z,23.63
2022-07-30T13:33:38.972Z,23.79
2022-07-30T13:36:07.964Z,23.88
2022-07-30T13:38:35.987Z,24.05
2022-07-30T13:41:05.268Z,24.41
2022-07-30T13:43:33.575Z,24.89
2022-07-30T13:46:04.067Z,25.34
2022-07-30T13:48:31.959Z,25.72
2022-07-30T13:51:01.200Z,25.95
2022-07-30T13:53:30.483Z,26.22
2022-07-30T13:55:59.449Z,26.38
2022-07-30T13:58:27.863Z,26.69
2022-07-30T14:00:55.772Z,27.00
2022-07-30T14:03:25.049Z,27.35
2022-07-30T14:05:53.815Z,27.62
2022-07-30T14:08:21.767Z,27.92
2022-07-30T14:10:50.292Z,28.22
2022-07-30T14:13:19.423Z,28.42
2022-07-30T14:15:49.596Z,28.61
2022-07-30T14:18:17.687Z,28.85
2022-07-30T14:20:48.939Z,28.97
2022-07-30T14:23:17.389Z,29.10
2022-07-30T14:25:45.328Z,29.12
2022-07-30T14:28:13.221Z,29.19
2022-07-30T14:30:41.290Z,29.26
2022-07-30T14:33:09.337Z,29.32
2022-07-30T14:35:37.417Z,29.33
2022-07-30T14:38:06.982Z,29.40
2022-07-30T14:40:35.094Z,29.54
2022-07-30T14:43:02.913Z,29.67
2022-07-30T14:45:30.814Z,29.76
2022-07-30T14:47:58.725Z,29.93
2022-07-30T14:50:26.575Z,29.94
2022-07-30T14:52:54.410Z,30.00
2022-07-30T14:55:23.762Z,30.00
2022-07-30T14:57:51.663Z,30.01
2022-07-30T15:00:19.635Z,30.08
2022-07-30T15:02:49.440Z,30.10
2022-07-30T15:05:17.426Z,30.13
2022-07-30T15:07:45.669Z,29.96
2022-07-30T15:10:13.632Z,29.99
2022-07-30T15:12:45.353Z,29.94
2022-07-30T15:15:14.068Z,29.68
2022-07-30T15:17:42.512Z,29.64
2022-07-30T15:20:11.501Z,29.69
2022-07-30T15:22:39.703Z,29.53
2022-07-30T15:25:09.358Z,29.24
2022-07-30T15:27:37.300Z,28.90
2022-07-30T15:30:07.438Z,28.59
2022-07-30T15:32:35.664Z,28.35
2022-07-30T15:35:04.665Z,28.20
2022-07-30T15:37:32.558Z,28.16
2022-07-30T15:40:00.341Z,28.02
2022-07-30T15:42:28.788Z,27.79
2022-07-30T15:45:16.200Z,27.70
2022-07-30T15:47:45.931Z,27.68
2022-07-30T15:50:15.421Z,27.69
2022-07-30T15:52:43.489Z,27.70
2022-07-30T15:55:11.719Z,27.60
2022-07-30T15:57:40.580Z,27.52
2022-07-30T16:00:09.479Z,27.38
2022-07-30T16:02:41.272Z,27.23
2022-07-30T16:05:14.268Z,27.12
2022-07-30T16:07:42.691Z,27.06
2022-07-30T16:10:11.143Z,26.99
2022-07-30T16:12:39.734Z,26.85
2022-07-30T16:15:09.408Z,26.76
2022-07-30T16:17:37.648Z,26.58
2022-07-30T16:20:06.394Z,26.51
2022-07-30T16:22:35.574Z,26.49
2022-07-30T16:25:03.446Z,26.41
2022-07-30T16:27:34.319Z,26.30
2022-07-30T16:30:04.176Z,26.22
2022-07-30T16:32:33.482Z,26.18
2022-07-30T16:35:01.842Z,26.15
2022-07-30T16:37:31.326Z,26.14
2022-07-30T16:40:06.283Z,26.11
2022-07-30T16:42:37.439Z,26.04
2022-07-30T16:45:06.034Z,25.99
2022-07-30T16:47:34.615Z,25.90
2022-07-30T16:50:02.432Z,25.85
2022-07-30T16:52:30.355Z,25.85
2022-07-30T16:54:58.151Z,25.81
2022-07-30T16:57:28.593Z,25.77
2022-07-30T16:59:58.746Z,25.67
2022-07-30T17:02:28.409Z,25.63
2022-07-30T17:04:56.954Z,25.53
2022-07-30T17:07:25.795Z,25.46
2022-07-30T17:09:55.487Z,25.38
2022-07-30T17:12:28.739Z,25.31
2022-07-30T17:14:59.170Z,25.28
2022-07-30T17:17:28.185Z,25.26
2022-07-30T17:19:58.571Z,25.21
2022-07-30T17:22:28.584Z,25.20
2022-07-30T17:24:59.808Z,25.22
2022-07-30T17:27:31.631Z,25.21
2022-07-30T17:30:00.465Z,25.19
2022-07-30T17:32:28.947Z,25.18
2022-07-30T17:35:01.420Z,25.10
2022-07-30T17:37:29.404Z,25.10
2022-07-30T17:40:27.149Z,25.04
2022-07-30T17:42:49.186Z,24.96
2022-07-30T17:45:18.267Z,24.92
2022-07-30T17:47:47.513Z,24.88
2022-07-30T17:50:15.782Z,24.83
2022-07-30T17:52:43.786Z,24.74
2022-07-30T17:55:13.244Z,24.69
2022-07-30T17:57:41.461Z,24.57
2022-07-30T18:00:11.862Z,24.48
2022-07-30T18:02:39.896Z,24.44
2022-07-30T18:05:08.970Z,24.40
2022-07-30T18:07:36.890Z,24.32
2022-07-30T18:10:05.478Z,24.24
2022-07-30T18:12:34.356Z,24.19
2022-07-30T18:15:03.026Z,24.17
2022-07-30T18:17:32.289Z,24.10
2022-07-30T18:20:00.655Z,24.05
2022-07-30T18:22:29.407Z,24.02
2022-07-30T18:25:00.822Z,23.97
2022-07-30T18:27:28.978Z,23.90
2022-07-30T18:29:56.844Z,23.86
2022-07-30T18:32:25.442Z,23.79
2022-07-30T18:34:54.658Z,23.75
2022-07-30T18:37:22.694Z,23.68
2022-07-30T18:39:50.502Z,23.63
2022-07-30T18:42:18.438Z,23.59
2022-07-30T18:44:53.975Z,23.53
2022-07-30T18:47:21.888Z,23.47
2022-07-30T18:49:50.277Z,23.40
2022-07-30T18:52:19.530Z,23.35
2022-07-30T18:54:47.790Z,23.30
2022-07-30T18:57:15.820Z,23.26
2022-07-30T18:59:43.851Z,23.20
2022-07-30T19:02:11.766Z,23.12
2022-07-30T19:04:39.620Z,23.05
2022-07-30T19:07:08.459Z,22.98
2022-07-30T19:09:37.793Z,22.90
2022-07-30T19:12:06.290Z,22.82
2022-07-30T19:14:34.677Z,22.74
2022-07-30T19:17:02.577Z,22.64
2022-07-30T19:19:30.572Z,22.57
2022-07-30T19:21:58.774Z,22.51
2022-07-30T19:24:27.620Z,22.44
2022-07-30T19:26:57.378Z,22.38
2022-07-30T19:29:25.608Z,22.28
2022-07-30T19:31:53.577Z,22.21
2022-07-30T19:34:21.429Z,22.16
2022-07-30T19:36:49.518Z,22.06
2022-07-30T19:39:21.852Z,21.97
2022-07-30T19:42:02.358Z,21.89
2022-07-30T19:44:31.721Z,21.80
2022-07-30T19:46:59.914Z,21.74
2022-07-30T19:49:29.647Z,21.67
2022-07-30T19:52:10.647Z,21.60
2022-07-30T19:54:46.183Z,21.51
2022-07-30T19:57:14.904Z,21.44
2022-07-30T19:59:57.872Z,21.37
2022-07-30T20:02:28.188Z,21.29
2022-07-30T20:04:56.052Z,21.23
2022-07-30T20:07:27.523Z,21.18
2022-07-30T20:09:55.695Z,21.13
2022-07-30T20:12:24.242Z,21.07
2022-07-30T20:14:53.708Z,21.01
2022-07-30T20:17:23.868Z,20.97
2022-07-30T20:19:59.501Z,20.91
2022-07-30T20:22:29.040Z,20.86
2022-07-30T20:24:57.253Z,20.81
2022-07-30T20:27:36.062Z,20.76
2022-07-30T20:30:09.090Z,20.71
2022-07-30T20:32:37.403Z,20.66
2022-07-30T20:35:07.761Z,20.60
2022-07-30T20:37:40.360Z,20.54
2022-07-30T20:40:24.280Z,20.48
2022-07-30T20:42:54.998Z,20.42
2022-07-30T20:45:25.348Z,20.35
2022-07-30T20:48:08.439Z,20.27
2022-07-30T20:50:46.168Z,20.18
2022-07-30T20:53:17.366Z,20.13
2022-07-30T20:55:45.335Z,20.08
2022-07-30T20:58:16.501Z,20.01
2022-07-30T21:00:49.586Z,19.94
2022-07-30T21:03:19.070Z,19.89
2022-07-30T21:05:52.561Z,19.83
2022-07-30T21:08:21.340Z,19.76
2022-07-30T21:10:54.993Z,19.72
2022-07-30T21:13:25.084Z,19.67
2022-07-30T21:16:02.970Z,19.59
2022-07-30T21:18:32.730Z,19.49
2022-07-30T21:21:01.616Z,19.39
2022-07-30T21:23:33.419Z,19.31
2022-07-30T21:26:05.955Z,19.24
2022-07-30T21:28:38.701Z,19.17
2022-07-30T21:31:09.629Z,19.11
2022-07-30T21:33:37.905Z,19.05
2022-07-30T21:36:10.183Z,18.99
2022-07-30T21:38:42.204Z,18.94
2022-07-30T21:41:14.474Z,18.92
2022-07-30T21:43:44.248Z,18.82
2022-07-30T21:46:14.701Z,18.76
2022-07-30T21:48:43.416Z,18.65
2022-07-30T21:51:12.081Z,18.57
2022-07-30T21:53:44.662Z,18.49
2022-07-30T21:56:13.896Z,18.42
2022-07-30T21:58:42.661Z,18.38
2022-07-30T22:01:17.132Z,18.35
2022-07-30T22:04:03.332Z,18.31
2022-07-30T22:06:37.888Z,18.26
2022-07-30T22:09:33.219Z,18.23
2022-07-30T22:12:06.497Z,18.19
2022-07-30T22:14:38.276Z,18.15
2022-07-30T22:17:06.199Z,18.11
2022-07-30T22:19:53.846Z,18.03
2022-07-30T22:22:27.680Z,17.98
2022-07-30T22:24:58.149Z,17.94
2022-07-30T22:27:26.441Z,17.89
2022-07-30T22:29:55.634Z,17.84
2022-07-30T22:32:24.250Z,17.80
2022-07-30T22:34:53.494Z,17.75
2022-07-30T22:37:22.139Z,17.68
2022-07-30T22:39:51.812Z,17.63
2022-07-30T22:42:24.366Z,17.58
2022-07-30T22:44:53.007Z,17.54
2022-07-30T22:47:51.022Z,17.52
2022-07-30T22:50:12.203Z,17.48
2022-07-30T22:52:50.147Z,17.47
2022-07-30T22:55:28.274Z,17.44
2022-07-30T22:57:57.694Z,17.36
2022-07-30T23:00:27.439Z,17.31
2022-07-30T23:02:57.339Z,17.27
2022-07-30T23:05:26.745Z,17.20
2022-07-30T23:07:54.753Z,17.15
2022-07-30T23:10:25.636Z,17.12
2022-07-30T23:12:55.747Z,17.09
2022-07-30T23:15:23.963Z,17.07
2022-07-30T23:17:51.802Z,17.07
2022-07-30T23:20:21.369Z,17.03
2022-07-30T23:22:51.250Z,17.01
2022-07-30T23:25:19.705Z,16.99
2022-07-30T23:27:47.677Z,16.99
2022-07-30T23:30:16.346Z,16.97
2022-07-30T23:32:44.488Z,16.97
2022-07-30T23:35:13.331Z,16.96
2022-07-30T23:37:49.111Z,16.93
2022-07-30T23:40:19.608Z,16.93
2022-07-30T23:42:47.592Z,16.90
2022-07-30T23:45:15.896Z,16.88
2022-07-30T23:48:01.470Z,16.82
2022-07-30T23:50:31.837Z,16.74
2022-07-30T23:52:59.804Z,16.67
2022-07-30T23:55:29.678Z,16.64
2022-07-30T23:57:57.978Z,16.63
